sensor_id;sensor_type;location;lat;lon;timestamp;temperature;humidity
37108;DHT22;23019;49.300;6.846;2022-09-03T00:00:05;33.50;99.90
37108;DHT22;23019;49.300;6.846;2022-09-03T00:02:15;33.50;99.90
37108;DHT22;23019;49.300;6.846;2022-09-03T00:04:38;33.50;99.90
37108;DHT22;23019;49.300;6.846;2022-09-03T00:06:48;33.40;99.90
37108;DHT22;23019;49.300;6.846;2022-09-03T00:13:24;33.40;99.90
37108;DHT22;23019;49.300;6.846;2022-09-03T00:15:27;33.40;99.90
37108;DHT22;23019;49.300;6.846;2022-09-03T00:17:33;33.30;99.90
37108;DHT22;23019;49.300;6.846;2022-09-03T00:19:40;33.40;99.90
37108;DHT22;23019;49.300;6.846;2022-09-03T00:21:50;33.30;99.90
37108;DHT22;23019;49.300;6.846;2022-09-03T00:23:52;33.30;99.90
37108;DHT22;23019;49.300;6.846;2022-09-03T00:27:58;33.30;99.90
37108;DHT22;23019;49.300;6.846;2022-09-03T00:30:09;33.20;99.90
37108;DHT22;23019;49.300;6.846;2022-09-03T00:32:20;33.20;99.90
37108;DHT22;23019;49.300;6.846;2022-09-03T00:34:35;33.20;99.90
37108;DHT22;23019;49.300;6.846;2022-09-03T00:36:41;33.20;99.90
37108;DHT22;23019;49.300;6.846;2022-09-03T00:38:43;33.20;99.90
37108;DHT22;23019;49.300;6.846;2022-09-03T00:41:01;33.20;99.90
37108;DHT22;23019;49.300;6.846;2022-09-03T00:43:20;33.10;99.90
37108;DHT22;23019;49.300;6.846;2022-09-03T00:45:48;33.10;99.90
37108;DHT22;23019;49.300;6.846;2022-09-03T00:48:26;33.10;99.90
37108;DHT22;23019;49.300;6.846;2022-09-03T01:00:14;33.00;99.90
37108;DHT22;23019;49.300;6.846;2022-09-03T01:05:09;33.00;99.90
37108;DHT22;23019;49.300;6.846;2022-09-03T01:09:38;32.90;99.90
37108;DHT22;23019;49.300;6.846;2022-09-03T01:12:03;32.80;99.90
37108;DHT22;23019;49.300;6.846;2022-09-03T01:16:42;32.80;99.90
37108;DHT22;23019;49.300;6.846;2022-09-03T01:19:03;32.80;99.90
37108;DHT22;23019;49.300;6.846;2022-09-03T01:21:35;32.80;99.90
37108;DHT22;23019;49.300;6.846;2022-09-03T01:28:54;32.60;99.90
37108;DHT22;23019;49.300;6.846;2022-09-03T01:31:30;32.60;99.90
37108;DHT22;23019;49.300;6.846;2022-09-03T01:36:10;32.50;99.90
37108;DHT22;23019;49.300;6.846;2022-09-03T01:43:09;32.50;99.90
37108;DHT22;23019;49.300;6.846;2022-09-03T01:45:18;32.40;99.90
37108;DHT22;23019;49.300;6.846;2022-09-03T01:50:02;32.40;99.90
37108;DHT22;23019;49.300;6.846;2022-09-03T01:52:13;32.30;99.90
37108;DHT22;23019;49.300;6.846;2022-09-03T01:54:30;32.30;99.90
37108;DHT22;23019;49.300;6.846;2022-09-03T01:58:58;32.30;99.90
37108;DHT22;23019;49.300;6.846;2022-09-03T02:01:12;32.20;99.90
37108;DHT22;23019;49.300;6.846;2022-09-03T02:03:14;32.10;99.90
37108;DHT22;23019;49.300;6.846;2022-09-03T02:07:18;32.10;99.90
37108;DHT22;23019;49.300;6.846;2022-09-03T02:09:20;32.00;99.90
37108;DHT22;23019;49.300;6.846;2022-09-03T02:11:21;32.00;99.90
37108;DHT22;23019;49.300;6.846;2022-09-03T02:13:35;32.00;99.90
37108;DHT22;23019;49.300;6.846;2022-09-03T02:15:40;32.00;99.90
37108;DHT22;23019;49.300;6.846;2022-09-03T02:17:43;31.90;99.90
37108;DHT22;23019;49.300;6.846;2022-09-03T02:19:44;31.90;99.90
37108;DHT22;23019;49.300;6.846;2022-09-03T02:21:50;31.80;99.90
37108;DHT22;23019;49.300;6.846;2022-09-03T02:23:52;31.80;99.90
37108;DHT22;23019;49.300;6.846;2022-09-03T02:26:01;31.80;99.90
37108;DHT22;23019;49.300;6.846;2022-09-03T02:28:03;31.70;99.90
37108;DHT22;23019;49.300;6.846;2022-09-03T02:30:05;31.70;99.90
37108;DHT22;23019;49.300;6.846;2022-09-03T02:32:06;31.70;99.90
37108;DHT22;23019;49.300;6.846;2022-09-03T02:34:07;31.60;99.90
37108;DHT22;23019;49.300;6.846;2022-09-03T02:36:11;31.60;99.90
37108;DHT22;23019;49.300;6.846;2022-09-03T02:38:24;31.50;99.90
37108;DHT22;23019;49.300;6.846;2022-09-03T02:40:27;31.50;99.90
37108;DHT22;23019;49.300;6.846;2022-09-03T02:42:28;31.50;99.90
37108;DHT22;23019;49.300;6.846;2022-09-03T02:44:30;31.50;99.90
37108;DHT22;23019;49.300;6.846;2022-09-03T02:46:41;31.40;99.90
37108;DHT22;23019;49.300;6.846;2022-09-03T02:48:43;31.40;99.90
37108;DHT22;23019;49.300;6.846;2022-09-03T02:50:43;31.30;99.90
37108;DHT22;23019;49.300;6.846;2022-09-03T02:52:47;31.30;99.90
37108;DHT22;23019;49.300;6.846;2022-09-03T02:54:47;31.20;99.90
37108;DHT22;23019;49.300;6.846;2022-09-03T02:56:48;31.20;99.90
37108;DHT22;23019;49.300;6.846;2022-09-03T02:58:49;31.20;99.90
37108;DHT22;23019;49.300;6.846;2022-09-03T03:00:49;31.10;99.90
37108;DHT22;23019;49.300;6.846;2022-09-03T03:02:50;31.10;99.90
37108;DHT22;23019;49.300;6.846;2022-09-03T03:04:51;31.10;99.90
37108;DHT22;23019;49.300;6.846;2022-09-03T03:06:54;31.00;99.90
37108;DHT22;23019;49.300;6.846;2022-09-03T03:08:55;31.00;99.90
37108;DHT22;23019;49.300;6.846;2022-09-03T03:10:57;30.90;99.90
37108;DHT22;23019;49.300;6.846;2022-09-03T03:12:58;31.00;99.90
37108;DHT22;23019;49.300;6.846;2022-09-03T03:14:59;30.90;99.90
37108;DHT22;23019;49.300;6.846;2022-09-03T03:16:59;30.80;99.90
37108;DHT22;23019;49.300;6.846;2022-09-03T03:19:00;30.80;99.90
37108;DHT22;23019;49.300;6.846;2022-09-03T03:21:09;30.80;99.90
37108;DHT22;23019;49.300;6.846;2022-09-03T03:23:10;30.70;99.90
37108;DHT22;23019;49.300;6.846;2022-09-03T03:25:11;30.70;99.90
37108;DHT22;23019;49.300;6.846;2022-09-03T03:27:12;30.70;99.90
37108;DHT22;23019;49.300;6.846;2022-09-03T03:29:17;30.70;99.90
37108;DHT22;23019;49.300;6.846;2022-09-03T03:31:19;30.60;99.90
37108;DHT22;23019;49.300;6.846;2022-09-03T03:33:21;30.50;99.90
37108;DHT22;23019;49.300;6.846;2022-09-03T03:35:22;30.50;99.90
37108;DHT22;23019;49.300;6.846;2022-09-03T03:37:23;30.50;99.90
37108;DHT22;23019;49.300;6.846;2022-09-03T03:39:24;30.50;99.90
37108;DHT22;23019;49.300;6.846;2022-09-03T03:41:30;30.40;99.90
37108;DHT22;23019;49.300;6.846;2022-09-03T03:43:31;30.40;99.90
37108;DHT22;23019;49.300;6.846;2022-09-03T03:45:31;30.40;99.90
37108;DHT22;23019;49.300;6.846;2022-09-03T03:47:32;30.30;99.90
37108;DHT22;23019;49.300;6.846;2022-09-03T03:49:34;30.20;99.90
37108;DHT22;23019;49.300;6.846;2022-09-03T03:51:35;30.20;99.90
37108;DHT22;23019;49.300;6.846;2022-09-03T03:53:37;30.20;99.90
37108;DHT22;23019;49.300;6.846;2022-09-03T03:55:38;30.10;99.90
37108;DHT22;23019;49.300;6.846;2022-09-03T03:57:39;30.10;99.90
37108;DHT22;23019;49.300;6.846;2022-09-03T03:59:39;30.10;99.90
37108;DHT22;23019;49.300;6.846;2022-09-03T04:01:40;30.00;99.90
37108;DHT22;23019;49.300;6.846;2022-09-03T04:03:41;30.00;99.90
37108;DHT22;23019;49.300;6.846;2022-09-03T04:05:42;30.00;99.90
37108;DHT22;23019;49.300;6.846;2022-09-03T04:07:42;29.90;99.90
37108;DHT22;23019;49.300;6.846;2022-09-03T04:09:44;29.90;99.90
37108;DHT22;23019;49.300;6.846;2022-09-03T04:11:45;29.90;99.90
37108;DHT22;23019;49.300;6.846;2022-09-03T04:13:46;29.90;99.90
37108;DHT22;23019;49.300;6.846;2022-09-03T04:15:47;29.80;99.90
37108;DHT22;23019;49.300;6.846;2022-09-03T04:17:47;29.80;99.90
37108;DHT22;23019;49.300;6.846;2022-09-03T04:19:48;29.70;99.90
37108;DHT22;23019;49.300;6.846;2022-09-03T04:21:50;29.70;99.90
37108;DHT22;23019;49.300;6.846;2022-09-03T04:23:51;29.60;99.90
37108;DHT22;23019;49.300;6.846;2022-09-03T04:25:52;29.50;99.90
37108;DHT22;23019;49.300;6.846;2022-09-03T04:27:53;29.60;99.90
37108;DHT22;23019;49.300;6.846;2022-09-03T04:29:53;29.50;99.90
37108;DHT22;23019;49.300;6.846;2022-09-03T04:31:54;29.50;99.90
37108;DHT22;23019;49.300;6.846;2022-09-03T04:34:13;29.40;99.90
37108;DHT22;23019;49.300;6.846;2022-09-03T04:36:17;29.40;99.90
37108;DHT22;23019;49.300;6.846;2022-09-03T04:38:18;29.40;99.90
37108;DHT22;23019;49.300;6.846;2022-09-03T04:40:19;29.30;99.90
37108;DHT22;23019;49.300;6.846;2022-09-03T04:42:20;29.30;99.90
37108;DHT22;23019;49.300;6.846;2022-09-03T04:44:21;29.30;99.90
37108;DHT22;23019;49.300;6.846;2022-09-03T04:46:24;29.20;99.90
37108;DHT22;23019;49.300;6.846;2022-09-03T04:48:26;29.20;99.90
37108;DHT22;23019;49.300;6.846;2022-09-03T04:50:28;29.20;99.90
37108;DHT22;23019;49.300;6.846;2022-09-03T04:52:35;29.20;99.90
37108;DHT22;23019;49.300;6.846;2022-09-03T04:54:37;29.10;99.90
37108;DHT22;23019;49.300;6.846;2022-09-03T04:56:40;29.10;99.90
37108;DHT22;23019;49.300;6.846;2022-09-03T04:58:41;29.00;99.90
37108;DHT22;23019;49.300;6.846;2022-09-03T05:00:44;29.00;99.90
37108;DHT22;23019;49.300;6.846;2022-09-03T05:02:45;29.00;99.90
37108;DHT22;23019;49.300;6.846;2022-09-03T05:04:47;28.90;99.90
37108;DHT22;23019;49.300;6.846;2022-09-03T05:06:48;28.90;99.90
37108;DHT22;23019;49.300;6.846;2022-09-03T05:08:53;28.90;99.90
37108;DHT22;23019;49.300;6.846;2022-09-03T05:10:58;28.80;99.90
37108;DHT22;23019;49.300;6.846;2022-09-03T05:13:01;28.80;99.90
37108;DHT22;23019;49.300;6.846;2022-09-03T05:15:02;28.80;99.90
37108;DHT22;23019;49.300;6.846;2022-09-03T05:17:04;28.80;99.90
37108;DHT22;23019;49.300;6.846;2022-09-03T05:19:05;28.70;99.90
37108;DHT22;23019;49.300;6.846;2022-09-03T05:21:09;28.70;99.90
37108;DHT22;23019;49.300;6.846;2022-09-03T05:25:11;28.60;99.90
37108;DHT22;23019;49.300;6.846;2022-09-03T05:27:11;28.60;99.90
37108;DHT22;23019;49.300;6.846;2022-09-03T05:29:12;28.50;99.90
37108;DHT22;23019;49.300;6.846;2022-09-03T05:31:18;28.50;99.90
37108;DHT22;23019;49.300;6.846;2022-09-03T05:33:19;28.50;99.90
37108;DHT22;23019;49.300;6.846;2022-09-03T05:35:23;28.40;99.90
37108;DHT22;23019;49.300;6.846;2022-09-03T05:37:25;28.40;99.90
37108;DHT22;23019;49.300;6.846;2022-09-03T05:39:26;28.40;99.90
37108;DHT22;23019;49.300;6.846;2022-09-03T05:41:27;28.40;99.90
37108;DHT22;23019;49.300;6.846;2022-09-03T05:43:29;28.30;99.90
37108;DHT22;23019;49.300;6.846;2022-09-03T05:45:30;28.30;99.90
37108;DHT22;23019;49.300;6.846;2022-09-03T05:47:32;28.30;99.90
37108;DHT22;23019;49.300;6.846;2022-09-03T05:49:33;28.20;99.90
37108;DHT22;23019;49.300;6.846;2022-09-03T05:51:35;28.20;99.90
37108;DHT22;23019;49.300;6.846;2022-09-03T05:53:38;28.20;99.90
37108;DHT22;23019;49.300;6.846;2022-09-03T05:55:39;28.10;99.90
37108;DHT22;23019;49.300;6.846;2022-09-03T05:57:39;28.10;99.90
37108;DHT22;23019;49.300;6.846;2022-09-03T05:59:40;28.10;99.90
37108;DHT22;23019;49.300;6.846;2022-09-03T06:01:43;28.10;99.90
37108;DHT22;23019;49.300;6.846;2022-09-03T06:04:07;28.00;99.90
37108;DHT22;23019;49.300;6.846;2022-09-03T06:06:07;28.00;99.90
37108;DHT22;23019;49.300;6.846;2022-09-03T06:08:08;28.00;99.90
37108;DHT22;23019;49.300;6.846;2022-09-03T06:10:09;28.00;99.90
37108;DHT22;23019;49.300;6.846;2022-09-03T06:12:11;27.90;99.90
37108;DHT22;23019;49.300;6.846;2022-09-03T06:14:13;27.90;99.90
37108;DHT22;23019;49.300;6.846;2022-09-03T06:16:14;27.90;99.90
37108;DHT22;23019;49.300;6.846;2022-09-03T06:18:15;27.90;99.90
37108;DHT22;23019;49.300;6.846;2022-09-03T06:20:15;27.80;99.90
37108;DHT22;23019;49.300;6.846;2022-09-03T06:22:16;27.80;99.90
37108;DHT22;23019;49.300;6.846;2022-09-03T06:24:18;27.70;99.90
37108;DHT22;23019;49.300;6.846;2022-09-03T06:26:19;27.80;99.90
37108;DHT22;23019;49.300;6.846;2022-09-03T06:28:20;27.70;99.90
37108;DHT22;23019;49.300;6.846;2022-09-03T06:30:21;27.60;99.90
37108;DHT22;23019;49.300;6.846;2022-09-03T06:32:23;27.70;99.90
37108;DHT22;23019;49.300;6.846;2022-09-03T06:34:28;27.70;99.90
37108;DHT22;23019;49.300;6.846;2022-09-03T06:36:29;27.60;99.90
37108;DHT22;23019;49.300;6.846;2022-09-03T06:38:32;27.60;99.90
37108;DHT22;23019;49.300;6.846;2022-09-03T06:40:35;27.60;99.90
37108;DHT22;23019;49.300;6.846;2022-09-03T06:42:35;27.50;99.90
37108;DHT22;23019;49.300;6.846;2022-09-03T06:44:37;27.50;99.90
37108;DHT22;23019;49.300;6.846;2022-09-03T06:46:39;27.50;99.90
37108;DHT22;23019;49.300;6.846;2022-09-03T06:48:42;27.50;99.90
37108;DHT22;23019;49.300;6.846;2022-09-03T06:50:43;27.40;99.90
37108;DHT22;23019;49.300;6.846;2022-09-03T06:52:43;27.40;99.90
37108;DHT22;23019;49.300;6.846;2022-09-03T06:54:44;27.40;99.90
37108;DHT22;23019;49.300;6.846;2022-09-03T06:56:45;27.40;99.90
37108;DHT22;23019;49.300;6.846;2022-09-03T06:58:46;27.30;99.90
37108;DHT22;23019;49.300;6.846;2022-09-03T07:00:48;27.30;99.90
37108;DHT22;23019;49.300;6.846;2022-09-03T07:02:55;27.30;99.90
37108;DHT22;23019;49.300;6.846;2022-09-03T07:04:57;27.30;99.90
37108;DHT22;23019;49.300;6.846;2022-09-03T07:06:58;27.30;99.90
37108;DHT22;23019;49.300;6.846;2022-09-03T07:09:00;27.20;99.90
37108;DHT22;23019;49.300;6.846;2022-09-03T07:11:02;27.20;99.90
37108;DHT22;23019;49.300;6.846;2022-09-03T07:13:05;27.20;99.90
37108;DHT22;23019;49.300;6.846;2022-09-03T07:15:09;27.20;99.90
37108;DHT22;23019;49.300;6.846;2022-09-03T07:17:10;27.20;99.90
37108;DHT22;23019;49.300;6.846;2022-09-03T07:19:11;27.20;99.90
37108;DHT22;23019;49.300;6.846;2022-09-03T07:21:18;27.20;99.90
37108;DHT22;23019;49.300;6.846;2022-09-03T07:23:18;27.10;99.90
37108;DHT22;23019;49.300;6.846;2022-09-03T07:25:19;27.10;99.90
37108;DHT22;23019;49.300;6.846;2022-09-03T07:27:20;27.10;99.90
37108;DHT22;23019;49.300;6.846;2022-09-03T07:29:20;27.10;99.90
37108;DHT22;23019;49.300;6.846;2022-09-03T07:31:32;27.10;99.90
37108;DHT22;23019;49.300;6.846;2022-09-03T07:33:40;27.10;99.90
37108;DHT22;23019;49.300;6.846;2022-09-03T07:35:41;27.00;99.90
37108;DHT22;23019;49.300;6.846;2022-09-03T07:37:42;27.00;99.90
37108;DHT22;23019;49.300;6.846;2022-09-03T07:39:42;27.00;99.90
37108;DHT22;23019;49.300;6.846;2022-09-03T07:41:44;27.00;99.90
37108;DHT22;23019;49.300;6.846;2022-09-03T07:43:50;27.00;99.90
37108;DHT22;23019;49.300;6.846;2022-09-03T07:45:51;27.00;99.90
37108;DHT22;23019;49.300;6.846;2022-09-03T07:47:58;27.00;99.90
37108;DHT22;23019;49.300;6.846;2022-09-03T07:49:59;27.00;99.90
37108;DHT22;23019;49.300;6.846;2022-09-03T07:52:00;26.90;99.90
37108;DHT22;23019;49.300;6.846;2022-09-03T07:54:04;26.90;99.90
37108;DHT22;23019;49.300;6.846;2022-09-03T07:56:10;26.90;99.90
37108;DHT22;23019;49.300;6.846;2022-09-03T07:58:11;26.90;99.90
37108;DHT22;23019;49.300;6.846;2022-09-03T08:00:13;26.80;99.90
37108;DHT22;23019;49.300;6.846;2022-09-03T08:02:15;26.80;99.90
37108;DHT22;23019;49.300;6.846;2022-09-03T08:04:15;26.80;99.90
37108;DHT22;23019;49.300;6.846;2022-09-03T08:06:18;26.80;99.90
37108;DHT22;23019;49.300;6.846;2022-09-03T08:08:19;26.80;99.90
37108;DHT22;23019;49.300;6.846;2022-09-03T08:10:20;26.70;99.90
37108;DHT22;23019;49.300;6.846;2022-09-03T08:12:22;26.70;99.90
37108;DHT22;23019;49.300;6.846;2022-09-03T08:14:23;26.70;99.90
37108;DHT22;23019;49.300;6.846;2022-09-03T08:16:23;26.70;99.90
37108;DHT22;23019;49.300;6.846;2022-09-03T08:18:24;26.70;99.90
37108;DHT22;23019;49.300;6.846;2022-09-03T08:20:26;26.60;99.90
37108;DHT22;23019;49.300;6.846;2022-09-03T08:22:27;26.60;99.90
37108;DHT22;23019;49.300;6.846;2022-09-03T08:24:28;26.60;99.90
37108;DHT22;23019;49.300;6.846;2022-09-03T08:26:31;26.60;99.90
37108;DHT22;23019;49.300;6.846;2022-09-03T08:28:32;26.60;99.90
37108;DHT22;23019;49.300;6.846;2022-09-03T08:30:35;26.50;99.90
37108;DHT22;23019;49.300;6.846;2022-09-03T08:32:38;26.50;99.90
37108;DHT22;23019;49.300;6.846;2022-09-03T08:34:39;26.50;99.90
37108;DHT22;23019;49.300;6.846;2022-09-03T08:36:40;26.50;99.90
37108;DHT22;23019;49.300;6.846;2022-09-03T08:38:42;26.40;99.90
37108;DHT22;23019;49.300;6.846;2022-09-03T08:40:45;26.40;99.90
37108;DHT22;23019;49.300;6.846;2022-09-03T08:43:04;26.40;99.90
37108;DHT22;23019;49.300;6.846;2022-09-03T08:45:09;26.40;99.90
37108;DHT22;23019;49.300;6.846;2022-09-03T08:51:33;26.40;99.90
37108;DHT22;23019;49.300;6.846;2022-09-03T08:53:46;26.30;99.90
37108;DHT22;23019;49.300;6.846;2022-09-03T08:55:55;26.30;99.90
37108;DHT22;23019;49.300;6.846;2022-09-03T08:58:06;26.30;99.90
37108;DHT22;23019;49.300;6.846;2022-09-03T09:00:21;26.20;99.90
37108;DHT22;23019;49.300;6.846;2022-09-03T09:02:51;26.20;99.90
37108;DHT22;23019;49.300;6.846;2022-09-03T09:05:24;26.20;99.90
37108;DHT22;23019;49.300;6.846;2022-09-03T09:07:48;26.20;99.90
37108;DHT22;23019;49.300;6.846;2022-09-03T09:10:04;26.20;99.90
37108;DHT22;23019;49.300;6.846;2022-09-03T09:12:37;26.10;99.90
37108;DHT22;23019;49.300;6.846;2022-09-03T09:15:12;26.10;99.90
37108;DHT22;23019;49.300;6.846;2022-09-03T09:22:47;26.00;99.90
37108;DHT22;23019;49.300;6.846;2022-09-03T09:24:49;26.00;99.90
37108;DHT22;23019;49.300;6.846;2022-09-03T09:26:58;26.00;99.90
37108;DHT22;23019;49.300;6.846;2022-09-03T09:29:07;26.00;99.90
37108;DHT22;23019;49.300;6.846;2022-09-03T09:31:12;26.00;99.90
37108;DHT22;23019;49.300;6.846;2022-09-03T09:33:17;25.90;99.90
37108;DHT22;23019;49.300;6.846;2022-09-03T09:35:18;25.90;99.90
37108;DHT22;23019;49.300;6.846;2022-09-03T09:37:19;25.90;99.90
37108;DHT22;23019;49.300;6.846;2022-09-03T09:39:21;25.90;99.90
37108;DHT22;23019;49.300;6.846;2022-09-03T09:41:22;25.90;99.90
37108;DHT22;23019;49.300;6.846;2022-09-03T09:43:24;25.80;99.90
37108;DHT22;23019;49.300;6.846;2022-09-03T09:45:25;25.80;99.90
37108;DHT22;23019;49.300;6.846;2022-09-03T09:47:33;25.80;99.90
37108;DHT22;23019;49.300;6.846;2022-09-03T09:49:53;25.80;99.90
37108;DHT22;23019;49.300;6.846;2022-09-03T09:52:06;25.80;99.90
37108;DHT22;23019;49.300;6.846;2022-09-03T09:54:18;25.70;99.90
37108;DHT22;23019;49.300;6.846;2022-09-03T09:56:27;25.70;99.90
37108;DHT22;23019;49.300;6.846;2022-09-03T09:58:29;25.80;99.90
37108;DHT22;23019;49.300;6.846;2022-09-03T10:00:30;25.70;99.90
37108;DHT22;23019;49.300;6.846;2022-09-03T10:02:38;25.70;99.90
37108;DHT22;23019;49.300;6.846;2022-09-03T10:04:41;25.70;99.90
37108;DHT22;23019;49.300;6.846;2022-09-03T10:06:45;25.70;99.90
37108;DHT22;23019;49.300;6.846;2022-09-03T10:11:10;25.60;99.90
37108;DHT22;23019;49.300;6.846;2022-09-03T10:13:36;25.60;99.90
37108;DHT22;23019;49.300;6.846;2022-09-03T10:20:17;25.90;99.90
37108;DHT22;23019;49.300;6.846;2022-09-03T10:22:32;27.50;99.90
37108;DHT22;23019;49.300;6.846;2022-09-03T10:24:57;32.80;99.90
37108;DHT22;23019;49.300;6.846;2022-09-03T10:26:58;42.10;99.90
37108;DHT22;23019;49.300;6.846;2022-09-03T10:29:01;49.40;99.90
37108;DHT22;23019;49.300;6.846;2022-09-03T10:33:34;54.30;99.90
37108;DHT22;23019;49.300;6.846;2022-09-03T10:35:44;53.80;99.90
37108;DHT22;23019;49.300;6.846;2022-09-03T10:40:12;51.40;99.90
37108;DHT22;23019;49.300;6.846;2022-09-03T10:44:53;53.50;99.90
37108;DHT22;23019;49.300;6.846;2022-09-03T10:49:53;55.20;99.90
37108;DHT22;23019;49.300;6.846;2022-09-03T10:52:16;54.50;99.90
37108;DHT22;23019;49.300;6.846;2022-09-03T10:54:41;53.50;99.90
37108;DHT22;23019;49.300;6.846;2022-09-03T10:57:17;52.60;99.90
37108;DHT22;23019;49.300;6.846;2022-09-03T11:04:25;50.40;99.90
37108;DHT22;23019;49.300;6.846;2022-09-03T11:06:29;50.60;99.90
37108;DHT22;23019;49.300;6.846;2022-09-03T11:08:43;53.00;99.90
37108;DHT22;23019;49.300;6.846;2022-09-03T11:10:48;54.60;99.90
37108;DHT22;23019;49.300;6.846;2022-09-03T11:15:30;55.50;99.90
37108;DHT22;23019;49.300;6.846;2022-09-03T11:17:52;55.40;99.90
37108;DHT22;23019;49.300;6.846;2022-09-03T11:20:24;55.80;99.90
37108;DHT22;23019;49.300;6.846;2022-09-03T11:22:26;56.20;99.90
37108;DHT22;23019;49.300;6.846;2022-09-03T11:24:30;56.40;99.90
37108;DHT22;23019;49.300;6.846;2022-09-03T11:26:33;56.50;99.90
37108;DHT22;23019;49.300;6.846;2022-09-03T11:28:52;56.50;99.90
37108;DHT22;23019;49.300;6.846;2022-09-03T11:33:26;56.20;99.90
37108;DHT22;23019;49.300;6.846;2022-09-03T11:35:37;55.80;99.90
37108;DHT22;23019;49.300;6.846;2022-09-03T11:37:58;55.40;99.90
37108;DHT22;23019;49.300;6.846;2022-09-03T11:40:06;54.90;99.90
37108;DHT22;23019;49.300;6.846;2022-09-03T11:42:11;54.30;99.90
37108;DHT22;23019;49.300;6.846;2022-09-03T11:44:21;53.80;99.90
37108;DHT22;23019;49.300;6.846;2022-09-03T11:48:45;52.70;99.90
37108;DHT22;23019;49.300;6.846;2022-09-03T11:50:54;52.10;99.90
37108;DHT22;23019;49.300;6.846;2022-09-03T11:55:11;51.20;99.90
37108;DHT22;23019;49.300;6.846;2022-09-03T11:57:14;50.70;99.90
37108;DHT22;23019;49.300;6.846;2022-09-03T11:59:22;50.30;99.90
37108;DHT22;23019;49.300;6.846;2022-09-03T12:01:24;50.00;99.90
37108;DHT22;23019;49.300;6.846;2022-09-03T12:03:46;49.70;99.90
37108;DHT22;23019;49.300;6.846;2022-09-03T12:11:03;48.60;99.90
37108;DHT22;23019;49.300;6.846;2022-09-03T12:13:32;48.40;99.90
37108;DHT22;23019;49.300;6.846;2022-09-03T12:18:02;47.90;99.90
37108;DHT22;23019;49.300;6.846;2022-09-03T12:20:19;47.60;99.90
37108;DHT22;23019;49.300;6.846;2022-09-03T12:22:27;47.30;99.90
37108;DHT22;23019;49.300;6.846;2022-09-03T12:24:31;47.10;99.90
37108;DHT22;23019;49.300;6.846;2022-09-03T12:26:42;46.90;99.90
37108;DHT22;23019;49.300;6.846;2022-09-03T12:28:46;46.70;99.90
37108;DHT22;23019;49.300;6.846;2022-09-03T12:30:50;46.40;99.90
37108;DHT22;23019;49.300;6.846;2022-09-03T12:33:02;46.20;99.90
37108;DHT22;23019;49.300;6.846;2022-09-03T12:35:18;46.10;99.90
37108;DHT22;23019;49.300;6.846;2022-09-03T12:37:22;45.90;99.90
37108;DHT22;23019;49.300;6.846;2022-09-03T12:39:25;45.70;99.90
37108;DHT22;23019;49.300;6.846;2022-09-03T12:41:28;45.50;99.90
37108;DHT22;23019;49.300;6.846;2022-09-03T12:43:30;45.40;99.90
37108;DHT22;23019;49.300;6.846;2022-09-03T12:45:31;45.20;99.90
37108;DHT22;23019;49.300;6.846;2022-09-03T12:47:42;45.00;99.90
37108;DHT22;23019;49.300;6.846;2022-09-03T12:49:45;44.80;99.90
37108;DHT22;23019;49.300;6.846;2022-09-03T12:51:45;44.60;99.90
37108;DHT22;23019;49.300;6.846;2022-09-03T12:53:49;44.50;99.90
37108;DHT22;23019;49.300;6.846;2022-09-03T12:55:53;44.40;99.90
37108;DHT22;23019;49.300;6.846;2022-09-03T13:00:28;44.10;99.90
37108;DHT22;23019;49.300;6.846;2022-09-03T13:02:40;43.90;99.90
37108;DHT22;23019;49.300;6.846;2022-09-03T13:04:46;43.80;99.90
37108;DHT22;23019;49.300;6.846;2022-09-03T13:07:01;43.60;99.90
37108;DHT22;23019;49.300;6.846;2022-09-03T13:09:07;43.50;99.90
37108;DHT22;23019;49.300;6.846;2022-09-03T13:11:09;43.40;99.90
37108;DHT22;23019;49.300;6.846;2022-09-03T13:13:27;43.30;99.90
37108;DHT22;23019;49.300;6.846;2022-09-03T13:15:29;43.10;99.90
37108;DHT22;23019;49.300;6.846;2022-09-03T13:31:07;42.20;99.90
37108;DHT22;23019;49.300;6.846;2022-09-03T13:35:59;42.00;99.90
37108;DHT22;23019;49.300;6.846;2022-09-03T13:40:15;41.80;99.90
37108;DHT22;23019;49.300;6.846;2022-09-03T13:42:24;41.70;99.90
37108;DHT22;23019;49.300;6.846;2022-09-03T13:44:35;41.60;99.90
37108;DHT22;23019;49.300;6.846;2022-09-03T13:46:52;41.40;99.90
37108;DHT22;23019;49.300;6.846;2022-09-03T13:51:50;41.30;99.90
37108;DHT22;23019;49.300;6.846;2022-09-03T13:54:20;41.20;99.90
37108;DHT22;23019;49.300;6.846;2022-09-03T13:56:52;41.20;99.90
37108;DHT22;23019;49.300;6.846;2022-09-03T13:59:05;41.20;99.90
37108;DHT22;23019;49.300;6.846;2022-09-03T14:01:26;41.10;99.90
37108;DHT22;23019;49.300;6.846;2022-09-03T14:03:52;41.10;99.90
37108;DHT22;23019;49.300;6.846;2022-09-03T14:13:04;40.80;99.90
37108;DHT22;23019;49.300;6.846;2022-09-03T14:15:29;40.80;99.90
37108;DHT22;23019;49.300;6.846;2022-09-03T14:17:48;40.80;99.90
37108;DHT22;23019;49.300;6.846;2022-09-03T14:20:02;40.60;99.90
37108;DHT22;23019;49.300;6.846;2022-09-03T14:22:24;40.60;99.90
37108;DHT22;23019;49.300;6.846;2022-09-03T14:24:44;40.50;99.90
37108;DHT22;23019;49.300;6.846;2022-09-03T14:26:55;40.50;99.90
37108;DHT22;23019;49.300;6.846;2022-09-03T14:31:34;40.40;99.90
37108;DHT22;23019;49.300;6.846;2022-09-03T14:33:54;40.40;99.90
37108;DHT22;23019;49.300;6.846;2022-09-03T14:38:49;40.30;99.90
37108;DHT22;23019;49.300;6.846;2022-09-03T14:43:50;40.10;99.90
37108;DHT22;23019;49.300;6.846;2022-09-03T14:48:34;40.10;99.90
37108;DHT22;23019;49.300;6.846;2022-09-03T15:07:07;39.70;99.90
37108;DHT22;23019;49.300;6.846;2022-09-03T15:09:30;39.70;99.90
37108;DHT22;23019;49.300;6.846;2022-09-03T15:11:41;39.70;99.90
37108;DHT22;23019;49.300;6.846;2022-09-03T15:13:48;39.70;99.90
37108;DHT22;23019;49.300;6.846;2022-09-03T15:23:22;39.60;99.90
37108;DHT22;23019;49.300;6.846;2022-09-03T15:30:10;39.50;99.90
37108;DHT22;23019;49.300;6.846;2022-09-03T15:32:36;39.60;99.90
37108;DHT22;23019;49.300;6.846;2022-09-03T15:36:54;39.50;99.90
37108;DHT22;23019;49.300;6.846;2022-09-03T15:39:05;39.50;99.90
37108;DHT22;23019;49.300;6.846;2022-09-03T15:41:49;39.50;99.90
37108;DHT22;23019;49.300;6.846;2022-09-03T15:43:50;39.50;99.90
37108;DHT22;23019;49.300;6.846;2022-09-03T15:46:08;39.50;99.90
37108;DHT22;23019;49.300;6.846;2022-09-03T15:48:25;39.50;99.90
37108;DHT22;23019;49.300;6.846;2022-09-03T15:55:34;39.40;99.90
37108;DHT22;23019;49.300;6.846;2022-09-03T16:00:05;39.40;99.90
37108;DHT22;23019;49.300;6.846;2022-09-03T16:02:17;39.40;99.90
37108;DHT22;23019;49.300;6.846;2022-09-03T16:08:56;39.50;99.90
37108;DHT22;23019;49.300;6.846;2022-09-03T16:15:59;39.40;99.90
37108;DHT22;23019;49.300;6.846;2022-09-03T16:22:29;39.40;99.90
37108;DHT22;23019;49.300;6.846;2022-09-03T16:24:37;39.30;99.90
37108;DHT22;23019;49.300;6.846;2022-09-03T16:26:50;39.20;99.90